Weather at Fort Augustus Airstrip

Public forecast

Using degrees Celsius for public forecast. Weather courtesy of forecast.io.

Closest aviation weather report (METAR) to Fort Augustus Airstrip

Closest report is Inverness Airport, 32.1 nm (59.4 km) NE.

2024/05/22 16:50 (retrieved 25 minutes ago)

EGPE 221650Z 02002KT 3500 -RA BR SCT004 BKN008 OVC016 13/12 Q1010 RERA

Closest aviation forecast (TAF) to Fort Augustus Airstrip

Closest forecast is RAF Lossiemouth, 55.3 nm (102.4 km) NE.

2024/05/22 15:03 (retrieved 2 hours ago)

TAF TAF EGQS 221357Z 2215/2309 04006KT 9999 BKN025 PROB40 TEMPO 2215/2223 3000 +RA SCT004 PROB30 TEMPO 2219/2224 35015G25KT BECMG 2223/2302 5000 BR OVC005 TEMPO 2223/2309 3000 +DZ BKN003 PROB30 2304/2309 0300 FG OVC000